Time;durP1;ratioP1;P1;durP2;ratioP2;P2;SDS_P1;SDS_P2;PMS_P1;PMS_P2;Temp;Humidity;BMP_temperature;BMP_pressure;BME280_temperature;BME280_humidity;BME280_pressure;Samples;Min_cycle;Max_cycle;Signal;HPM_P1;HPM_P2
2021/07/24 00:00:29;;;;;;;0.10;0.10;;;;;;;;;;5047035;28;20025;-77
2021/07/24 00:02:55;;;;;;;0.10;0.10;;;;;;;;;;5049758;28;20102;-78
2021/07/24 00:05:21;;;;;;;0.30;0.30;;;;;;;;;;5048996;28;20499;-76
2021/07/24 00:07:47;;;;;;;0.10;0.10;;;;;;;;;;5054152;28;20091;-79
2021/07/24 00:10:13;;;;;;;0.10;0.10;;;;;;;;;;5058487;28;20036;-78
2021/07/24 00:12:39;;;;;;;0.10;0.10;;;;;;;;;;5049112;28;20032;-78
2021/07/24 00:15:05;;;;;;;0.10;0.10;;;;;;;;;;5068001;28;20055;-77
2021/07/24 00:17:31;;;;;;;0.20;0.20;;;;;;;;;;5051226;28;20037;-79
2021/07/24 00:19:57;;;;;;;0.10;0.10;;;;;;;;;;5050789;28;20090;-78
2021/07/24 00:22:23;;;;;;;0.10;0.10;;;;;;;;;;5061469;28;20025;-78
2021/07/24 00:24:49;;;;;;;0.10;0.10;;;;;;;;;;5053259;28;20036;-77
2021/07/24 00:27:15;;;;;;;0.22;0.22;;;;;;;;;;5050514;28;20107;-76
2021/07/24 00:29:41;;;;;;;0.10;0.10;;;;;;;;;;5050352;28;20017;-78
2021/07/24 00:32:07;;;;;;;0.20;0.20;;;;;;;;;;5049990;28;20079;-77
2021/07/24 00:34:33;;;;;;;0.20;0.20;;;;;;;;;;5049931;28;20037;-77
2021/07/24 00:36:59;;;;;;;0.25;0.25;;;;;;;;;;5048808;28;20025;-78
2021/07/24 00:39:26;;;;;;;0.13;0.13;;;;;;;;;;5055666;28;20027;-75
2021/07/24 00:41:55;;;;;;;0.10;0.10;;;;;;;;;;5069795;28;20036;-78
2021/07/24 00:44:24;;;;;;;0.15;0.15;;;;;;;;;;5062626;28;20021;-78
2021/07/24 00:46:50;;;;;;;0.10;0.10;;;;;;;;;;5066089;28;20471;-78
2021/07/24 00:49:17;;;;;;;0.10;0.10;;;;;;;;;;5060104;28;20048;-77
2021/07/24 00:51:46;;;;;;;0.20;0.20;;;;;;;;;;5073004;28;20032;-78
2021/07/24 00:54:13;;;;;;;0.10;0.10;;;;;;;;;;5059378;28;20419;-77
2021/07/24 00:56:43;;;;;;;0.10;0.10;;;;;;;;;;5056340;28;20098;-78
2021/07/24 00:59:09;;;;;;;0.20;0.20;;;;;;;;;;5063608;28;20078;-78
2021/07/24 01:01:40;;;;;;;0.20;0.20;;;;;;;;;;5063309;28;20041;-77
2021/07/24 01:04:06;;;;;;;0.10;0.10;;;;;;;;;;5052832;28;20045;-76
2021/07/24 01:06:32;;;;;;;0.10;0.10;;;;;;;;;;5072326;28;20033;-77
2021/07/24 01:08:59;;;;;;;0.20;0.20;;;;;;;;;;5063280;28;20045;-78
2021/07/24 01:11:25;;;;;;;0.10;0.10;;;;;;;;;;5070222;28;20028;-77
2021/07/24 01:13:51;;;;;;;0.10;0.10;;;;;;;;;;5061423;28;20036;-78
2021/07/24 01:16:17;;;;;;;0.20;0.20;;;;;;;;;;5053048;28;20041;-78
2021/07/24 01:18:43;;;;;;;0.20;0.20;;;;;;;;;;5065343;28;20024;-78
2021/07/24 01:21:10;;;;;;;0.10;0.10;;;;;;;;;;5052743;28;20502;-78
2021/07/24 01:23:37;;;;;;;0.20;0.20;;;;;;;;;;5067377;28;20437;-78
2021/07/24 01:26:04;;;;;;;0.10;0.10;;;;;;;;;;5071484;28;20032;-77
2021/07/24 01:28:31;;;;;;;0.10;0.10;;;;;;;;;;5068502;28;20020;-76
2021/07/24 01:30:57;;;;;;;0.10;0.10;;;;;;;;;;5056199;28;20044;-78
2021/07/24 01:33:23;;;;;;;0.20;0.20;;;;;;;;;;5052815;28;20028;-79
2021/07/24 01:35:50;;;;;;;0.10;0.10;;;;;;;;;;5052628;28;20036;-79
2021/07/24 01:38:16;;;;;;;0.10;0.10;;;;;;;;;;5053222;28;20450;-78
2021/07/24 01:40:42;;;;;;;0.20;0.20;;;;;;;;;;5056849;28;20491;-78
2021/07/24 01:43:08;;;;;;;0.10;0.10;;;;;;;;;;5052742;28;20584;-78
2021/07/24 01:45:35;;;;;;;0.10;0.10;;;;;;;;;;5052474;28;20025;-78
2021/07/24 01:48:03;;;;;;;0.20;0.20;;;;;;;;;;5052988;28;20021;-78
2021/07/24 01:53:14;;;;;;;0.10;0.10;;;;;;;;;;5061453;28;20036;-76
2021/07/24 01:55:42;;;;;;;0.10;0.10;;;;;;;;;;5063714;28;20045;-78
2021/07/24 01:58:11;;;;;;;0.10;0.10;;;;;;;;;;5064446;28;20025;-78
2021/07/24 02:00:38;;;;;;;0.28;0.28;;;;;;;;;;5062463;28;20041;-78
2021/07/24 02:03:08;;;;;;;0.15;0.15;;;;;;;;;;5052196;28;20186;-77
2021/07/24 02:05:34;;;;;;;0.10;0.10;;;;;;;;;;5052357;28;20041;-77
2021/07/24 02:08:02;;;;;;;0.10;0.10;;;;;;;;;;5052157;28;20033;-77
2021/07/24 02:10:28;;;;;;;0.10;0.10;;;;;;;;;;5051141;28;20051;-77
2021/07/24 02:12:54;;;;;;;0.10;0.10;;;;;;;;;;5035938;28;20128;-77
2021/07/24 02:15:20;;;;;;;0.10;0.10;;;;;;;;;;5062511;28;20483;-78
2021/07/24 02:17:46;;;;;;;0.10;0.10;;;;;;;;;;5066340;28;20459;-76
2021/07/24 02:20:14;;;;;;;0.30;0.30;;;;;;;;;;5059474;28;20033;-78
2021/07/24 02:22:40;;;;;;;0.10;0.10;;;;;;;;;;5051222;28;20045;-78
2021/07/24 02:25:06;;;;;;;0.10;0.10;;;;;;;;;;5070242;28;20081;-77
2021/07/24 02:27:33;;;;;;;0.10;0.10;;;;;;;;;;5068735;28;20055;-79
2021/07/24 02:29:59;;;;;;;;;;;;;;;;;;5066356;28;20070;-77
2021/07/24 02:32:25;;;;;;;0.20;0.20;;;;;;;;;;5062048;28;19908;-77
2021/07/24 02:34:51;;;;;;;0.10;0.10;;;;;;;;;;5051227;28;20041;-79
2021/07/24 02:37:17;;;;;;;0.20;0.20;;;;;;;;;;5051568;28;20021;-78
2021/07/24 02:39:43;;;;;;;0.28;0.28;;;;;;;;;;5066330;28;20454;-78
2021/07/24 02:42:09;;;;;;;0.10;0.10;;;;;;;;;;5066318;28;20032;-77
2021/07/24 02:44:35;;;;;;;0.20;0.20;;;;;;;;;;5059513;28;20340;-78
2021/07/24 02:47:01;;;;;;;0.10;0.10;;;;;;;;;;5071212;28;20134;-78
2021/07/24 02:49:27;;;;;;;0.10;0.10;;;;;;;;;;5057420;28;20486;-77
2021/07/24 02:51:53;;;;;;;0.10;0.10;;;;;;;;;;5051297;28;20070;-77
2021/07/24 02:54:19;;;;;;;0.10;0.10;;;;;;;;;;5050428;28;20094;-78
2021/07/24 02:56:45;;;;;;;0.10;0.10;;;;;;;;;;5058404;28;20123;-77
2021/07/24 02:59:11;;;;;;;0.10;0.10;;;;;;;;;;5059777;28;20032;-78
2021/07/24 03:01:37;;;;;;;0.10;0.10;;;;;;;;;;5058972;28;20072;-77
2021/07/24 03:04:03;;;;;;;0.20;0.13;;;;;;;;;;5050564;28;20505;-78
2021/07/24 03:06:29;;;;;;;0.20;0.20;;;;;;;;;;5050925;28;20029;-78
2021/07/24 03:08:55;;;;;;;0.20;0.20;;;;;;;;;;5051453;28;20025;-78
2021/07/24 03:11:21;;;;;;;0.10;0.10;;;;;;;;;;5050551;28;20040;-79
2021/07/24 03:13:48;;;;;;;0.10;0.10;;;;;;;;;;5064404;28;20106;-78
2021/07/24 03:16:14;;;;;;;;;;;;;;;;;;5058647;28;20399;-78
2021/07/24 03:18:40;;;;;;;0.10;0.10;;;;;;;;;;5055171;28;19908;-78
2021/07/24 03:21:06;;;;;;;0.10;0.10;;;;;;;;;;5050596;28;20315;-78
2021/07/24 03:23:32;;;;;;;0.10;0.10;;;;;;;;;;5055956;28;20108;-78
2021/07/24 03:25:58;;;;;;;0.20;0.20;;;;;;;;;;5050730;28;20033;-77
2021/07/24 03:28:24;;;;;;;0.10;0.10;;;;;;;;;;5050632;28;20043;-77
2021/07/24 03:30:50;;;;;;;0.10;0.10;;;;;;;;;;5058020;28;20044;-78
2021/07/24 03:33:16;;;;;;;0.20;0.20;;;;;;;;;;5051658;28;20020;-78
2021/07/24 03:35:42;;;;;;;0.10;0.10;;;;;;;;;;5050099;28;20049;-78
2021/07/24 03:38:08;;;;;;;0.20;0.20;;;;;;;;;;5051278;28;20021;-78
2021/07/24 03:40:34;;;;;;;0.15;0.15;;;;;;;;;;5059804;28;20364;-78
2021/07/24 03:43:00;;;;;;;0.10;0.10;;;;;;;;;;5062995;28;20025;-77
2021/07/24 03:45:26;;;;;;;0.13;0.13;;;;;;;;;;5069903;28;20033;-77
2021/07/24 03:47:52;;;;;;;0.10;0.10;;;;;;;;;;5059009;28;20368;-78
2021/07/24 03:50:18;;;;;;;0.13;0.13;;;;;;;;;;5050055;28;20057;-77
2021/07/24 03:52:44;;;;;;;0.10;0.10;;;;;;;;;;5049942;28;20082;-77
2021/07/24 03:55:10;;;;;;;0.10;0.10;;;;;;;;;;5067273;28;20516;-77
2021/07/24 03:57:37;;;;;;;0.10;0.10;;;;;;;;;;5070057;28;20021;-78
2021/07/24 04:00:04;;;;;;;0.10;0.10;;;;;;;;;;5052298;28;20037;-79
2021/07/24 04:02:32;;;;;;;0.25;0.25;;;;;;;;;;5059731;28;20032;-78
2021/07/24 04:04:58;;;;;;;0.10;0.10;;;;;;;;;;5049950;28;20075;-77
2021/07/24 04:07:24;;;;;;;0.10;0.10;;;;;;;;;;5049993;28;20194;-78
2021/07/24 04:09:52;;;;;;;0.10;0.10;;;;;;;;;;5050373;28;20028;-78
2021/07/24 04:12:18;;;;;;;0.17;0.17;;;;;;;;;;5050776;28;20475;-78
2021/07/24 04:14:45;;;;;;;0.10;0.10;;;;;;;;;;5050323;28;20041;-77
2021/07/24 04:17:11;;;;;;;0.10;0.10;;;;;;;;;;5064954;28;20118;-78
2021/07/24 04:19:38;;;;;;;0.10;0.10;;;;;;;;;;5063950;28;20028;-78
2021/07/24 04:22:04;;;;;;;0.10;0.10;;;;;;;;;;5066221;28;20040;-78
2021/07/24 04:24:30;;;;;;;0.10;0.10;;;;;;;;;;5055658;28;20092;-78
2021/07/24 04:26:56;;;;;;;0.20;0.20;;;;;;;;;;5053795;28;20483;-78
2021/07/24 04:29:22;;;;;;;0.13;0.13;;;;;;;;;;5062893;28;20039;-78
2021/07/24 04:31:48;;;;;;;0.08;0.08;;;;;;;;;;5060968;28;20024;-76
2021/07/24 04:34:14;;;;;;;0.20;0.20;;;;;;;;;;5058888;28;20029;-78
2021/07/24 04:36:43;;;;;;;0.20;0.20;;;;;;;;;;5051969;28;20044;-77
2021/07/24 04:39:09;;;;;;;0.10;0.10;;;;;;;;;;5053568;28;20082;-77
2021/07/24 04:41:35;;;;;;;0.10;0.10;;;;;;;;;;5052526;28;20021;-78
2021/07/24 04:44:01;;;;;;;0.20;0.20;;;;;;;;;;5053738;28;20039;-78
2021/07/24 04:46:27;;;;;;;0.10;0.10;;;;;;;;;;5070743;28;20035;-77
2021/07/24 04:48:53;;;;;;;0.17;0.17;;;;;;;;;;5063908;28;20049;-77
2021/07/24 04:51:19;;;;;;;0.10;0.10;;;;;;;;;;5067412;28;20058;-77
2021/07/24 04:53:46;;;;;;;0.17;0.17;;;;;;;;;;5053438;28;20073;-76
2021/07/24 04:56:12;;;;;;;0.10;0.10;;;;;;;;;;5068163;28;20492;-77
2021/07/24 04:58:38;;;;;;;0.10;0.10;;;;;;;;;;5063130;28;20052;-76
2021/07/24 05:01:04;;;;;;;0.15;0.15;;;;;;;;;;5057342;28;20549;-75
2021/07/24 05:03:31;;;;;;;0.10;0.10;;;;;;;;;;5056443;28;20028;-78
2021/07/24 05:05:57;;;;;;;;;;;;;;;;;;5053563;28;20029;-75
2021/07/24 05:08:23;;;;;;;0.10;0.10;;;;;;;;;;5059657;28;19931;-78
2021/07/24 05:10:49;;;;;;;0.10;0.10;;;;;;;;;;5057185;28;20110;-77
2021/07/24 05:13:15;;;;;;;0.10;0.10;;;;;;;;;;5042891;28;20139;-77
2021/07/24 05:15:41;;;;;;;0.25;0.25;;;;;;;;;;5033171;28;20037;-76
2021/07/24 05:18:08;;;;;;;0.20;0.20;;;;;;;;;;5041874;28;20033;-77
2021/07/24 05:20:35;;;;;;;0.10;0.10;;;;;;;;;;5053244;28;20091;-77
2021/07/24 05:23:01;;;;;;;0.30;0.30;;;;;;;;;;5060464;28;20078;-77
2021/07/24 05:25:27;;;;;;;0.20;0.20;;;;;;;;;;5059624;28;20029;-78
2021/07/24 05:27:53;;;;;;;0.10;0.10;;;;;;;;;;5053007;28;20515;-76
2021/07/24 05:30:19;;;;;;;0.10;0.10;;;;;;;;;;5042999;28;20436;-77
2021/07/24 05:32:45;;;;;;;0.20;0.20;;;;;;;;;;5040735;28;20045;-77
2021/07/24 05:35:11;;;;;;;0.25;0.25;;;;;;;;;;5047133;28;20399;-77
2021/07/24 05:37:37;;;;;;;0.10;0.10;;;;;;;;;;5051422;28;20028;-78
2021/07/24 05:40:04;;;;;;;0.10;0.10;;;;;;;;;;5050648;28;20068;-78
2021/07/24 05:42:30;;;;;;;0.10;0.10;;;;;;;;;;5052665;28;20056;-78
2021/07/24 05:44:56;;;;;;;0.10;0.10;;;;;;;;;;5052759;28;20060;-78
2021/07/24 05:47:22;;;;;;;0.17;0.17;;;;;;;;;;5052482;28;20021;-78
2021/07/24 05:49:48;;;;;;;0.20;0.20;;;;;;;;;;5051679;28;20116;-76
2021/07/24 05:52:14;;;;;;;0.20;0.20;;;;;;;;;;5063244;28;20363;-80
2021/07/24 05:54:40;;;;;;;0.10;0.10;;;;;;;;;;5074109;28;20033;-79
2021/07/24 05:57:06;;;;;;;0.20;0.20;;;;;;;;;;5063763;28;20032;-78
2021/07/24 05:59:34;;;;;;;0.10;0.10;;;;;;;;;;5060284;28;20101;-77
2021/07/24 06:02:01;;;;;;;0.20;0.20;;;;;;;;;;5059362;28;20032;-79
2021/07/24 06:04:27;;;;;;;0.20;0.20;;;;;;;;;;5067255;28;20044;-79
2021/07/24 06:06:53;;;;;;;0.10;0.10;;;;;;;;;;5075628;28;20078;-79
2021/07/24 06:09:19;;;;;;;0.10;0.10;;;;;;;;;;5082105;28;20031;-80
2021/07/24 06:11:45;;;;;;;0.20;0.20;;;;;;;;;;5073403;28;20130;-79
2021/07/24 06:14:11;;;;;;;0.17;0.17;;;;;;;;;;5062778;28;20110;-80
2021/07/24 06:16:38;;;;;;;0.17;0.17;;;;;;;;;;5079109;28;20129;-79
2021/07/24 06:19:04;;;;;;;0.20;0.20;;;;;;;;;;5056355;28;20028;-79
2021/07/24 06:21:30;;;;;;;0.20;0.20;;;;;;;;;;5053442;28;20102;-79
2021/07/24 06:23:56;;;;;;;0.28;0.10;;;;;;;;;;5060367;28;20029;-80
2021/07/24 06:26:22;;;;;;;0.20;0.20;;;;;;;;;;5048679;28;20108;-79
2021/07/24 06:28:48;;;;;;;0.10;0.10;;;;;;;;;;5038658;28;20033;-80
2021/07/24 06:31:14;;;;;;;0.10;0.10;;;;;;;;;;5048521;28;20052;-80
2021/07/24 06:33:40;;;;;;;0.10;0.10;;;;;;;;;;5062698;28;20025;-78
2021/07/24 06:36:06;;;;;;;0.35;0.20;;;;;;;;;;5063347;28;20040;-79
2021/07/24 06:38:32;;;;;;;0.25;0.25;;;;;;;;;;5063959;28;20043;-79
2021/07/24 06:40:58;;;;;;;0.20;0.20;;;;;;;;;;5063700;28;20052;-78
2021/07/24 06:43:24;;;;;;;0.13;0.13;;;;;;;;;;5062131;28;20032;-79
2021/07/24 06:45:50;;;;;;;0.10;0.10;;;;;;;;;;5056218;28;20360;-80
2021/07/24 06:48:16;;;;;;;0.10;0.10;;;;;;;;;;5044669;28;20044;-79
2021/07/24 06:50:43;;;;;;;0.20;0.20;;;;;;;;;;5059184;28;20025;-79
2021/07/24 06:53:09;;;;;;;0.10;0.10;;;;;;;;;;5050172;28;20127;-79
2021/07/24 06:55:35;;;;;;;0.22;0.22;;;;;;;;;;5031440;28;20033;-79
2021/07/24 06:58:01;;;;;;;0.10;0.10;;;;;;;;;;5031643;28;20079;-78
2021/07/24 07:00:28;;;;;;;0.20;0.20;;;;;;;;;;5030679;28;20120;-79
2021/07/24 07:02:56;;;;;;;0.35;0.35;;;;;;;;;;5027502;28;20030;-79
2021/07/24 07:05:22;;;;;;;0.20;0.20;;;;;;;;;;5050226;28;20049;-79
2021/07/24 07:07:48;;;;;;;0.10;0.10;;;;;;;;;;5048616;28;20032;-80
2021/07/24 07:10:14;;;;;;;0.10;0.10;;;;;;;;;;5048200;28;20055;-80
2021/07/24 07:12:40;;;;;;;0.15;0.15;;;;;;;;;;5036941;28;20072;-79
2021/07/24 07:15:08;;;;;;;0.28;0.28;;;;;;;;;;5031332;28;20392;-79
2021/07/24 07:17:35;;;;;;;0.10;0.10;;;;;;;;;;5030901;28;20068;-80
2021/07/24 07:20:02;;;;;;;0.10;0.10;;;;;;;;;;5031901;28;20046;-79
2021/07/24 07:22:28;;;;;;;0.10;0.10;;;;;;;;;;5050311;28;20499;-79
2021/07/24 07:24:54;;;;;;;0.10;0.10;;;;;;;;;;5050871;28;20056;-75
2021/07/24 07:27:19;;;;;;;0.20;0.20;;;;;;;;;;5050749;28;20112;-76
2021/07/24 07:29:45;;;;;;;0.20;0.20;;;;;;;;;;5050202;28;20104;-75
2021/07/24 07:32:14;;;;;;;0.10;0.10;;;;;;;;;;5050588;28;20032;-75
2021/07/24 07:34:40;;;;;;;0.30;0.30;;;;;;;;;;5048150;28;20045;-74
2021/07/24 07:37:06;;;;;;;0.10;0.10;;;;;;;;;;5050196;28;20448;-74
2021/07/24 07:39:31;;;;;;;0.20;0.20;;;;;;;;;;5050086;28;20025;-75
2021/07/24 07:41:57;;;;;;;0.13;0.13;;;;;;;;;;5050076;28;20033;-76
2021/07/24 07:44:24;;;;;;;0.10;0.10;;;;;;;;;;5049914;28;20047;-74
2021/07/24 07:46:51;;;;;;;0.28;0.28;;;;;;;;;;5049472;28;20517;-75
2021/07/24 07:49:17;;;;;;;0.20;0.20;;;;;;;;;;5050327;28;20155;-77
2021/07/24 07:51:43;;;;;;;0.20;0.20;;;;;;;;;;5050414;28;20112;-76
2021/07/24 07:54:09;;;;;;;0.22;0.22;;;;;;;;;;5048974;28;20041;-76
2021/07/24 07:56:35;;;;;;;0.20;0.20;;;;;;;;;;5049963;28;20102;-76
2021/07/24 07:59:01;;;;;;;0.20;0.20;;;;;;;;;;5049890;28;20021;-75
2021/07/24 08:01:27;;;;;;;0.10;0.10;;;;;;;;;;5049131;28;20344;-75
2021/07/24 08:03:53;;;;;;;0.10;0.10;;;;;;;;;;5049029;28;20049;-75
2021/07/24 08:06:19;;;;;;;0.20;0.20;;;;;;;;;;5035940;28;20030;-77
2021/07/24 08:08:45;;;;;;;0.10;0.10;;;;;;;;;;5029943;28;20379;-74
2021/07/24 08:11:11;;;;;;;0.20;0.20;;;;;;;;;;5030259;28;20083;-74
2021/07/24 08:13:37;;;;;;;0.20;0.20;;;;;;;;;;5049824;28;20036;-76
2021/07/24 08:16:03;;;;;;;0.20;0.20;;;;;;;;;;5049517;28;20060;-75
2021/07/24 08:18:29;;;;;;;0.20;0.20;;;;;;;;;;5049395;28;20021;-76
2021/07/24 08:20:55;;;;;;;0.20;0.20;;;;;;;;;;5037529;28;20337;-78
2021/07/24 08:23:22;;;;;;;0.10;0.10;;;;;;;;;;5037555;28;20025;-76
2021/07/24 08:25:48;;;;;;;;;;;;;;;;;;5035169;28;20098;-77
2021/07/24 08:28:14;;;;;;;0.20;0.20;;;;;;;;;;5049127;28;19909;-77
2021/07/24 08:30:40;;;;;;;0.20;0.20;;;;;;;;;;5031349;28;20456;-78
2021/07/24 08:33:06;;;;;;;0.10;0.10;;;;;;;;;;5029928;28;20102;-77
2021/07/24 08:35:32;;;;;;;0.20;0.20;;;;;;;;;;5029354;28;20209;-76
2021/07/24 08:37:58;;;;;;;0.10;0.10;;;;;;;;;;5034146;28;20110;-77
2021/07/24 08:40:24;;;;;;;0.20;0.20;;;;;;;;;;5050023;28;20109;-77
2021/07/24 08:42:50;;;;;;;0.20;0.20;;;;;;;;;;5049829;28;20032;-77
2021/07/24 08:45:17;;;;;;;0.20;0.20;;;;;;;;;;5049494;28;20025;-78
2021/07/24 08:47:44;;;;;;;0.20;0.20;;;;;;;;;;5049009;28;20037;-77
2021/07/24 08:50:10;;;;;;;0.20;0.20;;;;;;;;;;5048362;28;20546;-77
2021/07/24 08:52:36;;;;;;;;;;;;;;;;;;5048356;28;20025;-78
2021/07/24 08:55:04;;;;;;;0.20;0.20;;;;;;;;;;5049743;28;19909;-79
2021/07/24 08:57:34;;;;;;;0.10;0.10;;;;;;;;;;5048959;28;20041;-78
2021/07/24 09:00:27;;;;;;;0.10;0.10;;;;;;;;;;5049567;28;20017;-78
2021/07/24 09:02:54;;;;;;;0.25;0.25;;;;;;;;;;5043350;28;20038;-79
2021/07/24 09:05:20;;;;;;;;;;;;;;;;;;5045129;28;20383;-79
2021/07/24 09:07:47;;;;;;;0.25;0.20;;;;;;;;;;5049112;28;19912;-78
2021/07/24 09:10:12;;;;;;;;;;;;;;;;;;5049511;28;20021;-79
2021/07/24 09:12:42;;;;;;;0.10;0.10;;;;;;;;;;5052975;28;19911;-78
2021/07/24 09:15:09;;;;;;;0.20;0.20;;;;;;;;;;5052551;28;20029;-77
2021/07/24 09:17:35;;;;;;;;;;;;;;;;;;5053456;28;20037;-79
2021/07/24 09:20:01;;;;;;;0.10;0.10;;;;;;;;;;5053159;28;19905;-78
2021/07/24 09:22:28;;;;;;;0.10;0.10;;;;;;;;;;5052594;28;20025;-78
2021/07/24 09:25:13;;;;;;;0.10;0.10;;;;;;;;;;5053047;28;20032;-79
2021/07/24 09:28:01;;;;;;;0.20;0.20;;;;;;;;;;5052784;28;20388;-79
2021/07/24 09:30:29;;;;;;;0.20;0.20;;;;;;;;;;5052329;28;20515;-79
2021/07/24 09:33:05;;;;;;;0.30;0.30;;;;;;;;;;5052783;28;20017;-79
2021/07/24 09:35:31;;;;;;;;;;;;;;;;;;5052633;28;20051;-79
2021/07/24 09:37:57;;;;;;;0.10;0.10;;;;;;;;;;5052408;28;19908;-80
2021/07/24 09:40:23;;;;;;;0.20;0.20;;;;;;;;;;5051804;28;20025;-79
2021/07/24 09:42:49;;;;;;;0.10;0.10;;;;;;;;;;5052352;28;20017;-79
2021/07/24 09:45:15;;;;;;;0.20;0.20;;;;;;;;;;5052680;28;20075;-79
2021/07/24 09:47:41;;;;;;;0.10;0.10;;;;;;;;;;5052892;28;20669;-80
2021/07/24 09:50:14;;;;;;;0.20;0.20;;;;;;;;;;5051864;28;20074;-79
2021/07/24 09:52:50;;;;;;;0.20;0.20;;;;;;;;;;5050854;28;20368;-79
2021/07/24 09:55:17;;;;;;;0.20;0.20;;;;;;;;;;5052393;28;20116;-80
2021/07/24 09:57:44;;;;;;;0.10;0.10;;;;;;;;;;5050908;28;20454;-80
2021/07/24 10:00:39;;;;;;;0.10;0.10;;;;;;;;;;5051519;28;20033;-78
2021/07/24 10:03:06;;;;;;;0.20;0.20;;;;;;;;;;5043614;28;20041;-79
2021/07/24 10:05:32;;;;;;;;;;;;;;;;;;5052738;28;20294;-79
2021/07/24 10:07:59;;;;;;;0.20;0.20;;;;;;;;;;5052510;28;19999;-79
2021/07/24 10:10:25;;;;;;;0.20;0.20;;;;;;;;;;5052189;28;20499;-78
2021/07/24 10:12:51;;;;;;;0.20;0.20;;;;;;;;;;5051894;28;20044;-79
2021/07/24 10:15:17;;;;;;;0.30;0.30;;;;;;;;;;5051444;28;20037;-79
2021/07/24 10:17:43;;;;;;;0.25;0.25;;;;;;;;;;5052124;28;20025;-79
2021/07/24 10:20:10;;;;;;;0.20;0.20;;;;;;;;;;5051279;28;20075;-80
2021/07/24 10:22:35;;;;;;;0.30;0.30;;;;;;;;;;5051446;28;20059;-80
2021/07/24 10:25:01;;;;;;;0.20;0.20;;;;;;;;;;5051649;28;20069;-80
2021/07/24 10:27:31;;;;;;;0.20;0.20;;;;;;;;;;5051887;28;20486;-80
2021/07/24 10:30:02;;;;;;;0.13;0.13;;;;;;;;;;5051652;28;20040;-80
2021/07/24 10:32:29;;;;;;;0.25;0.25;;;;;;;;;;5051321;28;20032;-79
2021/07/24 10:34:55;;;;;;;0.20;0.20;;;;;;;;;;5051796;28;20098;-80
2021/07/24 10:37:30;;;;;;;0.10;0.10;;;;;;;;;;5052149;28;20076;-79
2021/07/24 10:40:15;;;;;;;0.20;0.20;;;;;;;;;;5050824;28;20090;-79
2021/07/24 10:42:41;;;;;;;0.10;0.10;;;;;;;;;;5051251;28;20029;-80
2021/07/24 10:45:27;;;;;;;0.10;0.10;;;;;;;;;;5051880;28;20032;-79
2021/07/24 10:48:23;;;;;;;0.10;0.10;;;;;;;;;;5051775;28;20549;-80
2021/07/24 10:51:00;;;;;;;0.10;0.10;;;;;;;;;;5050359;28;20098;-79
2021/07/24 10:53:27;;;;;;;0.20;0.20;;;;;;;;;;5051179;28;20013;-79
2021/07/24 10:55:54;;;;;;;0.20;0.20;;;;;;;;;;5051562;28;20051;-79
2021/07/24 10:58:25;;;;;;;0.10;0.10;;;;;;;;;;5051853;28;20098;-80
2021/07/24 11:00:51;;;;;;;0.10;0.10;;;;;;;;;;5051216;28;20033;-80
2021/07/24 11:03:31;;;;;;;0.17;0.17;;;;;;;;;;5050922;28;20036;-80
2021/07/24 11:05:57;;;;;;;0.20;0.20;;;;;;;;;;5050663;28;20065;-80
2021/07/24 11:08:43;;;;;;;0.30;0.30;;;;;;;;;;5046952;28;20029;-79
2021/07/24 11:11:09;;;;;;;0.30;0.30;;;;;;;;;;5046880;28;20049;-79
2021/07/24 11:13:54;;;;;;;0.10;0.10;;;;;;;;;;5034771;28;20053;-80
2021/07/24 11:16:20;;;;;;;0.25;0.25;;;;;;;;;;5037650;28;20075;-79
2021/07/24 11:19:05;;;;;;;0.20;0.20;;;;;;;;;;5045188;28;20057;-78
2021/07/24 11:22:04;;;;;;;0.17;0.17;;;;;;;;;;5059828;28;20041;-79
2021/07/24 11:24:30;;;;;;;0.20;0.20;;;;;;;;;;5049117;28;20076;-80
2021/07/24 11:27:02;;;;;;;0.10;0.10;;;;;;;;;;5039381;28;20060;-79
2021/07/24 11:29:28;;;;;;;0.20;0.20;;;;;;;;;;5048549;28;20078;-77
2021/07/24 11:31:54;;;;;;;0.20;0.10;;;;;;;;;;5049596;28;20107;-76
2021/07/24 11:34:21;;;;;;;0.10;0.10;;;;;;;;;;5050034;28;20048;-77
2021/07/24 11:36:47;;;;;;;;;;;;;;;;;;5049463;28;20116;-76
2021/07/24 11:39:13;;;;;;;0.10;0.10;;;;;;;;;;5050522;28;20363;-77
2021/07/24 11:41:39;;;;;;;0.10;0.10;;;;;;;;;;5049002;28;20043;-78
2021/07/24 11:44:05;;;;;;;0.15;0.15;;;;;;;;;;5031231;28;20025;-75
2021/07/24 11:46:31;;;;;;;0.20;0.20;;;;;;;;;;5031289;28;20025;-76
2021/07/24 11:49:04;;;;;;;0.20;0.20;;;;;;;;;;5030138;28;20080;-78
2021/07/24 11:51:30;;;;;;;0.10;0.10;;;;;;;;;;5037900;28;20071;-75
2021/07/24 11:53:56;;;;;;;0.20;0.20;;;;;;;;;;5050325;28;20025;-74
2021/07/24 11:56:22;;;;;;;;;;;;;;;;;;5050553;28;20124;-78
2021/07/24 11:58:52;;;;;;;0.20;0.20;;;;;;;;;;5050250;28;20004;-78
2021/07/24 12:01:19;;;;;;;0.20;0.20;;;;;;;;;;5043611;28;20108;-78
2021/07/24 12:03:45;;;;;;;0.10;0.10;;;;;;;;;;5029602;28;20036;-77
2021/07/24 12:06:12;;;;;;;0.17;0.17;;;;;;;;;;5036992;28;20125;-79
2021/07/24 12:08:45;;;;;;;0.10;0.10;;;;;;;;;;5049947;28;20025;-79
2021/07/24 12:11:18;;;;;;;0.20;0.20;;;;;;;;;;5038413;28;20068;-78
2021/07/24 12:13:44;;;;;;;0.20;0.20;;;;;;;;;;5030177;28;20037;-78
2021/07/24 12:16:12;;;;;;;0.32;0.32;;;;;;;;;;5029994;28;20046;-79
2021/07/24 12:18:47;;;;;;;0.40;0.40;;;;;;;;;;5035773;28;20661;-79
2021/07/24 12:21:17;;;;;;;0.30;0.30;;;;;;;;;;5035703;28;20027;-79
2021/07/24 12:23:53;;;;;;;0.30;0.30;;;;;;;;;;5049597;28;20531;-79
2021/07/24 12:26:21;;;;;;;0.30;0.30;;;;;;;;;;5049643;28;20025;-78
2021/07/24 12:28:47;;;;;;;0.30;0.30;;;;;;;;;;5029820;28;20025;-79
2021/07/24 12:31:22;;;;;;;0.20;0.20;;;;;;;;;;5034469;28;20387;-79
2021/07/24 12:33:54;;;;;;;0.13;0.13;;;;;;;;;;5049120;28;20045;-79
2021/07/24 12:36:22;;;;;;;0.20;0.20;;;;;;;;;;5049709;28;20039;-79
2021/07/24 12:38:48;;;;;;;0.13;0.13;;;;;;;;;;5049817;28;20032;-78
2021/07/24 12:41:14;;;;;;;;;;;;;;;;;;5048090;28;20498;-78
2021/07/24 12:43:41;;;;;;;0.17;0.17;;;;;;;;;;5049360;28;19909;-79
2021/07/24 12:46:17;;;;;;;0.10;0.10;;;;;;;;;;5045267;28;20009;-78
2021/07/24 12:48:47;;;;;;;0.15;0.15;;;;;;;;;;5053718;28;20033;-78
2021/07/24 12:51:17;;;;;;;0.10;0.10;;;;;;;;;;5049639;28;20029;-78
2021/07/24 12:53:48;;;;;;;0.20;0.20;;;;;;;;;;5033567;28;20032;-79
2021/07/24 12:56:14;;;;;;;0.20;0.20;;;;;;;;;;5033585;28;20496;-79
2021/07/24 12:58:40;;;;;;;0.10;0.10;;;;;;;;;;5033719;28;20084;-79
2021/07/24 13:01:07;;;;;;;0.10;0.10;;;;;;;;;;5039789;28;20463;-79
2021/07/24 13:03:33;;;;;;;0.17;0.17;;;;;;;;;;5052904;28;20406;-79
2021/07/24 13:05:59;;;;;;;0.20;0.20;;;;;;;;;;5053214;28;20124;-80
2021/07/24 13:08:26;;;;;;;0.30;0.30;;;;;;;;;;5053321;28;20025;-80
2021/07/24 13:10:53;;;;;;;0.15;0.15;;;;;;;;;;5053342;28;20072;-79
2021/07/24 13:13:19;;;;;;;0.10;0.10;;;;;;;;;;5034928;28;20068;-79
2021/07/24 13:15:45;;;;;;;0.10;0.10;;;;;;;;;;5040279;28;20409;-78
2021/07/24 13:18:11;;;;;;;0.17;0.17;;;;;;;;;;5051971;28;20079;-79
2021/07/24 13:20:37;;;;;;;0.10;0.10;;;;;;;;;;5033256;28;20022;-78
2021/07/24 13:23:03;;;;;;;0.10;0.10;;;;;;;;;;5032665;28;20025;-79
2021/07/24 13:28:14;;;;;;;0.20;0.20;;;;;;;;;;5053647;28;20029;-80
2021/07/24 13:30:40;;;;;;;0.10;0.10;;;;;;;;;;5048369;28;20110;-79
2021/07/24 13:33:06;;;;;;;0.10;0.10;;;;;;;;;;5052786;28;20027;-79
2021/07/24 13:35:34;;;;;;;0.10;0.10;;;;;;;;;;5051832;28;20060;-77
2021/07/24 13:38:00;;;;;;;0.10;0.10;;;;;;;;;;5052549;28;20036;-78
2021/07/24 13:40:26;;;;;;;0.10;0.10;;;;;;;;;;5046042;28;20035;-77
2021/07/24 13:42:52;;;;;;;0.10;0.10;;;;;;;;;;5032963;28;20030;-75
2021/07/24 13:45:18;;;;;;;0.20;0.20;;;;;;;;;;5031439;28;20311;-76
2021/07/24 13:47:44;;;;;;;0.13;0.13;;;;;;;;;;5032962;28;20056;-78
2021/07/24 13:50:10;;;;;;;0.10;0.10;;;;;;;;;;5034758;28;20033;-76
2021/07/24 13:52:37;;;;;;;0.10;0.10;;;;;;;;;;5052469;28;20517;-76
2021/07/24 13:55:06;;;;;;;0.00;0.00;;;;;;;;;;5051487;28;20086;-78
2021/07/24 13:57:32;;;;;;;0.20;0.20;;;;;;;;;;5051304;28;20049;-79
2021/07/24 13:59:58;;;;;;;0.10;0.10;;;;;;;;;;5052429;28;20083;-78
2021/07/24 14:02:24;;;;;;;0.10;0.10;;;;;;;;;;5050549;28;20111;-79
2021/07/24 14:04:50;;;;;;;0.10;0.10;;;;;;;;;;5045471;28;20569;-78
2021/07/24 14:07:17;;;;;;;0.00;0.00;;;;;;;;;;5031992;28;20065;-76
2021/07/24 14:09:43;;;;;;;0.00;0.00;;;;;;;;;;5037469;28;20086;-78
2021/07/24 14:12:09;;;;;;;0.10;0.10;;;;;;;;;;5044990;28;20471;-78
2021/07/24 14:14:35;;;;;;;0.10;0.10;;;;;;;;;;5050771;28;20387;-77
2021/07/24 14:17:01;;;;;;;0.20;0.20;;;;;;;;;;5056216;28;20021;-76
2021/07/24 14:19:27;;;;;;;0.10;0.10;;;;;;;;;;5036745;28;20087;-75
2021/07/24 14:21:53;;;;;;;0.20;0.20;;;;;;;;;;5032312;28;20473;-77
2021/07/24 14:24:19;;;;;;;0.10;0.10;;;;;;;;;;5032278;28;20110;-76
2021/07/24 14:26:45;;;;;;;0.10;0.10;;;;;;;;;;5031857;28;20862;-76
2021/07/24 14:29:11;;;;;;;0.20;0.20;;;;;;;;;;5029960;28;20048;-75
2021/07/24 14:31:37;;;;;;;0.20;0.20;;;;;;;;;;5042925;28;20024;-75
2021/07/24 14:34:03;;;;;;;0.00;0.00;;;;;;;;;;5038208;28;20086;-76
2021/07/24 14:36:29;;;;;;;0.10;0.10;;;;;;;;;;5048148;28;20033;-75
2021/07/24 14:38:59;;;;;;;0.10;0.10;;;;;;;;;;5041404;28;20038;-76
2021/07/24 14:41:25;;;;;;;0.10;0.10;;;;;;;;;;5031273;28;20140;-74
2021/07/24 14:43:51;;;;;;;0.10;0.10;;;;;;;;;;5030814;28;20156;-75
2021/07/24 14:46:20;;;;;;;0.20;0.20;;;;;;;;;;5036393;28;20025;-77
2021/07/24 14:48:47;;;;;;;0.10;0.10;;;;;;;;;;5049159;28;20403;-76
2021/07/24 14:51:17;;;;;;;0.10;0.10;;;;;;;;;;5034080;28;20026;-77
2021/07/24 14:53:43;;;;;;;0.10;0.10;;;;;;;;;;5031766;28;20112;-78